Time;durP1;ratioP1;P1;durP2;ratioP2;P2;SDS_P1;SDS_P2;PMS_P1;PMS_P2;Temp;Humidity;BMP_temperature;BMP_pressure;BME280_temperature;BME280_humidity;BME280_pressure;Samples;Min_cycle;Max_cycle;Signal;HPM_P1;HPM_P2
2023/01/17 00:01:06;;;;;;;403.75;264.48;;;;;;;1.56;100.00;99898.22;5068781;28;20053;-81
2023/01/17 00:09:51;;;;;;;393.92;255.48;;;;;;;1.45;100.00;99901.19;5067440;28;20049;-81
2023/01/17 00:11:49;;;;;;;386.15;237.98;;;;;;;1.36;100.00;99895.19;5067404;28;20048;-81
2023/01/17 00:14:16;;;;;;;393.08;239.25;;;;;;;1.54;100.00;99912.47;5066692;28;20045;-81
2023/01/17 00:16:42;;;;;;;398.13;257.65;;;;;;;1.51;100.00;99920.66;5067794;28;20048;-81
2023/01/17 01:35:59;;;;;;;140.88;128.43;;;;;;;2.20;100.00;99816.13;5082794;28;20071;-81
2023/01/17 01:38:26;;;;;;;129.82;118.30;;;;;;;2.53;100.00;99816.72;5088106;28;20491;-80
2023/01/17 01:40:55;;;;;;;135.07;123.20;;;;;;;2.47;100.00;99820.03;5087957;28;20497;-81
2023/01/17 01:43:40;;;;;;;130.00;118.93;;;;;;;2.63;100.00;99819.94;5089388;28;20070;-81
2023/01/17 01:46:10;;;;;;;125.70;115.05;;;;;;;2.81;100.00;99801.22;5090606;28;20052;-81
2023/01/17 01:48:42;;;;;;;120.22;109.95;;;;;;;2.87;100.00;99802.34;5089684;28;20480;-81
2023/01/17 01:51:12;;;;;;;;;;;;;;;2.86;100.00;99790.22;5084381;28;20507;-81
2023/01/17 01:53:42;;;;;;;112.05;102.35;;;;;;;3.05;100.00;99779.19;5083140;28;19974;-81
2023/01/17 01:56:12;;;;;;;118.47;108.00;;;;;;;3.22;100.00;99782.47;5088505;28;20052;-81
2023/01/17 01:58:41;;;;;;;117.03;107.18;;;;;;;3.76;100.00;99781.34;5091842;28;20048;-81
2023/01/17 02:01:09;;;;;;;111.75;102.18;;;;;;;3.75;100.00;99779.72;5084292;28;20595;-81
2023/01/17 02:03:37;;;;;;;103.22;93.47;;;;;;;3.71;100.00;99767.97;5085733;28;20487;-81
2023/01/17 02:06:15;;;;;;;107.72;98.13;;;;;;;3.78;100.00;99771.47;5082409;28;20053;-82
2023/01/17 02:08:42;;;;;;;107.30;96.78;;;;;;;3.31;100.00;99773.53;5082135;28;20417;-81
2023/01/17 02:11:09;;;;;;;109.07;99.78;;;;;;;3.78;100.00;99774.94;5080733;28;20048;-81
2023/01/17 02:13:36;;;;;;;109.32;99.47;;;;;;;3.76;100.00;99769.03;5091875;28;20109;-82
2023/01/17 02:16:12;;;;;;;96.85;88.25;;;;;;;3.54;100.00;99770.81;5090065;28;20052;-81
2023/01/17 02:18:49;;;;;;;94.47;86.00;;;;;;;2.80;100.00;99775.19;5087037;28;20488;-82
2023/01/17 02:21:23;;;;;;;89.40;80.38;;;;;;;3.06;100.00;99772.16;5093618;28;20052;-81
2023/01/17 02:24:29;;;;;;;80.65;72.93;;;;;;;2.92;100.00;99774.59;5080372;28;20128;-81
2023/01/17 02:27:04;;;;;;;79.47;72.35;;;;;;;2.86;100.00;99772.69;5074504;28;20095;-81
2023/01/17 02:30:17;;;;;;;82.40;75.00;;;;;;;3.03;100.00;99790.91;5069011;28;20049;-81
2023/01/17 02:33:02;;;;;;;85.13;77.10;;;;;;;2.88;100.00;99788.25;5066860;28;20044;-81
2023/01/17 02:35:36;;;;;;;84.93;77.60;;;;;;;2.77;100.00;99763.25;5069980;28;20050;-81
2023/01/17 02:38:14;;;;;;;85.10;77.63;;;;;;;2.75;100.00;99752.13;5076225;28;20053;-81
2023/01/17 02:40:45;;;;;;;95.90;86.40;;;;;;;2.72;100.00;99755.94;5069832;28;20098;-81
2023/01/17 02:43:15;;;;;;;99.88;90.00;;;;;;;2.67;100.00;99760.09;5073447;28;20041;-81
2023/01/17 02:45:42;;;;;;;94.65;85.05;;;;;;;3.25;100.00;99778.69;5078476;28;20044;-81
2023/01/17 02:48:13;;;;;;;97.43;88.43;;;;;;;3.59;100.00;99775.50;5073109;28;20056;-81
2023/01/17 02:50:58;;;;;;;92.47;83.57;;;;;;;2.20;100.00;99775.00;5063213;28;20096;-81
2023/01/17 02:53:36;;;;;;;91.97;83.07;;;;;;;2.09;100.00;99775.44;5044106;28;20049;-81
2023/01/17 02:56:13;;;;;;;95.88;87.07;;;;;;;2.47;100.00;99771.03;5063707;28;20438;-81
2023/01/17 02:59:00;;;;;;;102.88;93.88;;;;;;;2.71;100.00;99748.25;5073084;28;20097;-81
2023/01/17 03:01:34;;;;;;;96.38;87.70;;;;;;;2.60;100.00;99754.72;5064799;28;20049;-81
2023/01/17 03:04:06;;;;;;;96.63;87.63;;;;;;;2.53;100.00;99751.97;5068143;28;20501;-81
2023/01/17 03:08:50;;;;;;;99.32;89.43;;;;;;;2.79;100.00;99763.91;5097320;27;20385;-81
2023/01/17 03:11:17;;;;;;;92.32;83.53;;;;;;;2.67;100.00;99750.41;5079051;28;20048;-81
2023/01/17 03:13:44;;;;;;;93.50;84.57;;;;;;;2.70;100.00;99736.13;5079704;28;20074;-81
2023/01/17 03:16:14;;;;;;;109.93;100.00;;;;;;;2.83;100.00;99731.06;5077816;28;20052;-81
2023/01/17 03:18:41;;;;;;;100.82;91.97;;;;;;;3.03;100.00;99739.22;5077577;28;20045;-81
2023/01/17 03:21:08;;;;;;;88.70;80.72;;;;;;;3.11;100.00;99749.63;5073467;28;20076;-81
2023/01/17 03:23:35;;;;;;;92.75;84.70;;;;;;;3.25;100.00;99739.31;5077114;28;20071;-81
2023/01/17 03:26:03;;;;;;;90.30;81.82;;;;;;;3.69;100.00;99728.72;5081105;28;20048;-81
2023/01/17 03:28:30;;;;;;;132.98;122.00;;;;;;;3.73;100.00;99734.44;5081295;28;20057;-81
2023/01/17 03:30:57;;;;;;;124.85;115.03;;;;;;;3.80;100.00;99727.44;5081468;28;20048;-82
2023/01/17 03:33:23;;;;;;;118.13;108.35;;;;;;;3.67;100.00;99723.69;5076493;28;20106;-81
2023/01/17 03:35:50;;;;;;;114.22;105.63;;;;;;;3.92;100.00;99709.38;5075738;28;20078;-81
2023/01/17 03:38:18;;;;;;;112.30;103.70;;;;;;;4.32;100.00;99700.84;5075972;28;20049;-82
2023/01/17 03:40:45;;;;;;;116.65;107.78;;;;;;;4.44;100.00;99697.72;5079498;28;20045;-82
2023/01/17 03:43:13;;;;;;;103.45;95.22;;;;;;;4.36;100.00;99690.78;5081667;28;20049;-81
2023/01/17 03:45:39;;;;;;;111.82;103.47;;;;;;;4.29;100.00;99690.72;5081703;28;20056;-81
2023/01/17 03:48:06;;;;;;;99.15;91.60;;;;;;;4.35;100.00;99691.78;5081775;28;20041;-81
2023/01/17 03:50:33;;;;;;;101.85;94.22;;;;;;;4.72;100.00;99695.06;5081998;28;20048;-81
2023/01/17 03:53:00;;;;;;;71.75;65.60;;;;;;;5.11;100.00;99691.84;5082222;28;20517;-82
2023/01/17 03:55:26;;;;;;;74.25;67.63;;;;;;;5.24;100.00;99702.47;5081194;28;20049;-81
2023/01/17 03:57:53;;;;;;;85.50;76.13;;;;;;;5.35;100.00;99702.91;5081219;28;20094;-81
2023/01/17 04:00:21;;;;;;;127.68;114.32;;;;;;;5.39;100.00;99691.78;5082481;28;20049;-81
2023/01/17 04:02:48;;;;;;;85.15;78.70;;;;;;;5.55;100.00;99679.28;5081363;28;20486;-81
2023/01/17 04:05:15;;;;;;;92.35;85.80;;;;;;;5.56;100.00;99696.69;5076359;28;20488;-81
2023/01/17 04:07:42;;;;;;;113.68;103.93;;;;;;;5.76;100.00;99688.88;5071620;28;20091;-81
2023/01/17 04:10:10;;;;;;;123.93;100.40;;;;;;;6.01;100.00;99697.84;5076716;28;20075;-81
2023/01/17 04:12:37;;;;;;;100.63;90.50;;;;;;;6.07;100.00;99694.41;5074951;28;20115;-81
2023/01/17 04:15:04;;;;;;;105.20;94.97;;;;;;;6.25;100.00;99696.47;5068289;28;20049;-82
2023/01/17 04:17:32;;;;;;;103.43;93.60;;;;;;;6.24;100.00;99702.75;5077769;28;20048;-81
2023/01/17 04:19:59;;;;;;;63.88;58.40;;;;;;;6.84;100.00;99715.91;5068824;28;20060;-81
2023/01/17 04:22:26;;;;;;;62.00;57.70;;;;;;;7.51;100.00;99727.09;5066309;28;20053;-81
2023/01/17 04:24:52;;;;;;;62.35;58.25;;;;;;;7.82;100.00;99730.81;5062551;28;20107;-82
2023/01/17 04:27:19;;;;;;;60.03;56.13;;;;;;;7.95;100.00;99722.78;5067780;28;20106;-82
2023/01/17 04:29:46;;;;;;;60.50;56.55;;;;;;;8.12;100.00;99731.84;5058996;28;20049;-82
2023/01/17 04:32:13;;;;;;;58.40;54.85;;;;;;;8.32;100.00;99730.88;5058875;28;20110;-81
2023/01/17 04:34:41;;;;;;;65.50;61.45;;;;;;;8.15;100.00;99722.69;5068543;28;20560;-81
2023/01/17 04:37:08;;;;;;;66.90;62.30;;;;;;;8.06;100.00;99731.91;5068391;28;20048;-81
2023/01/17 04:39:35;;;;;;;64.75;60.42;;;;;;;7.99;100.00;99724.00;5059972;28;20136;-81
2023/01/17 04:42:02;;;;;;;62.85;58.80;;;;;;;8.18;100.00;99730.19;5065031;28;20079;-81
2023/01/17 04:44:29;;;;;;;58.25;54.65;;;;;;;8.38;100.00;99722.97;5057301;28;20048;-81
2023/01/17 04:46:56;;;;;;;63.30;59.08;;;;;;;8.44;100.00;99727.38;4995465;28;20473;-81
2023/01/17 04:49:22;;;;;;;65.28;61.38;;;;;;;8.59;100.00;99718.28;5031742;28;20041;-82
2023/01/17 04:51:50;;;;;;;69.50;65.18;;;;;;;8.55;100.00;99719.75;5037942;28;20107;-81
2023/01/17 04:54:17;;;;;;;66.07;62.15;;;;;;;8.63;100.00;99725.59;5034996;28;20096;-81
2023/01/17 04:56:44;;;;;;;55.40;52.15;;;;;;;8.58;100.00;99706.91;5031718;28;20046;-81
2023/01/17 04:59:11;;;;;;;59.03;55.42;;;;;;;8.67;100.00;99715.38;5029119;28;20514;-81
2023/01/17 05:01:38;;;;;;;58.92;55.10;;;;;;;8.71;100.00;99706.78;5036896;28;20107;-81
2023/01/17 05:04:05;;;;;;;62.03;58.22;;;;;;;8.67;100.00;99707.44;5036753;28;20057;-81
2023/01/17 05:06:32;;;;;;;60.17;56.40;;;;;;;8.52;100.00;99705.13;5031962;28;20046;-81
2023/01/17 05:09:01;;;;;;;61.42;57.33;;;;;;;8.18;100.00;99707.19;5025337;28;20049;-81
2023/01/17 05:11:28;;;;;;;63.60;58.67;;;;;;;7.96;100.00;99708.56;5027004;28;20056;-81
2023/01/17 05:13:55;;;;;;;63.13;58.28;;;;;;;7.96;100.00;99714.66;5028870;28;20107;-82
2023/01/17 05:16:21;;;;;;;62.38;57.80;;;;;;;7.87;100.00;99723.88;5031568;28;20506;-82
2023/01/17 05:18:51;;;;;;;62.85;58.35;;;;;;;7.90;100.00;99720.81;5033043;28;20046;-81
2023/01/17 05:21:18;;;;;;;65.55;60.55;;;;;;;7.81;100.00;99735.28;5037380;28;20064;-82
2023/01/17 05:23:45;;;;;;;79.63;74.22;;;;;;;7.46;100.00;99730.34;5001975;28;20107;-81
2023/01/17 05:26:13;;;;;;;67.25;62.50;;;;;;;7.40;100.00;99740.97;5046968;28;20042;-82
2023/01/17 05:28:40;;;;;;;60.15;55.90;;;;;;;7.11;100.00;99748.38;5039462;28;20127;-82
2023/01/17 05:31:07;;;;;;;62.15;57.60;;;;;;;7.16;100.00;99763.56;5041819;28;20050;-82
2023/01/17 05:33:33;;;;;;;63.42;58.53;;;;;;;7.41;100.00;99771.63;5037590;28;20059;-82
2023/01/17 05:36:00;;;;;;;69.60;63.50;;;;;;;7.59;100.00;99784.97;5047147;28;20056;-82
2023/01/17 05:38:27;;;;;;;61.22;56.92;;;;;;;7.82;100.00;99784.50;5053108;28;20041;-81
2023/01/17 05:40:54;;;;;;;58.58;54.40;;;;;;;8.00;100.00;99783.81;5052528;28;20040;-81
2023/01/17 05:43:22;;;;;;;56.28;52.13;;;;;;;8.20;100.00;99796.91;5056611;28;20053;-81
2023/01/17 05:45:49;;;;;;;56.60;52.20;;;;;;;7.97;100.00;99792.16;5045847;28;20116;-82
2023/01/17 05:48:16;;;;;;;58.95;54.65;;;;;;;7.96;100.00;99796.63;5047051;28;20052;-81
2023/01/17 05:50:43;;;;;;;57.53;53.45;;;;;;;7.42;100.00;99802.34;5051933;28;20053;-82
2023/01/17 05:53:11;;;;;;;58.47;54.35;;;;;;;7.33;100.00;99793.81;5054947;28;20057;-81
2023/01/17 05:55:39;;;;;;;63.35;58.65;;;;;;;7.27;100.00;99797.28;5053607;28;20053;-81
2023/01/17 05:58:07;;;;;;;58.65;54.15;;;;;;;7.26;100.00;99801.75;5054061;28;20103;-81
2023/01/17 06:00:36;;;;;;;64.72;59.58;;;;;;;7.27;100.00;99798.09;5053882;28;20473;-81
2023/01/17 06:03:03;;;;;;;68.90;63.03;;;;;;;7.20;100.00;99804.38;5054461;28;20049;-81
2023/01/17 06:05:30;;;;;;;68.15;62.80;;;;;;;7.27;100.00;99819.22;5054173;28;20045;-81
2023/01/17 06:07:57;;;;;;;70.53;64.95;;;;;;;7.30;100.00;99818.81;5047345;28;20506;-82
2023/01/17 06:10:25;;;;;;;76.57;69.70;;;;;;;7.29;100.00;99827.75;5047841;28;20072;-81
2023/01/17 06:13:00;;;;;;;69.10;63.75;;;;;;;7.34;100.00;99814.72;5046238;28;20046;-81
2023/01/17 06:15:28;;;;;;;73.05;67.40;;;;;;;7.31;100.00;99803.75;5040821;28;20107;-81
2023/01/17 06:17:56;;;;;;;69.35;63.72;;;;;;;7.81;100.00;99814.59;5048744;28;20394;-82
2023/01/17 06:20:23;;;;;;;72.55;67.25;;;;;;;7.85;100.00;99825.56;5051348;28;20472;-81
2023/01/17 06:22:50;;;;;;;70.18;65.07;;;;;;;7.83;100.00;99815.19;5055550;28;20174;-81
2023/01/17 06:25:17;;;;;;;70.57;64.95;;;;;;;7.47;100.00;99813.06;5051721;28;20490;-82
2023/01/17 06:27:43;;;;;;;63.28;57.92;;;;;;;7.16;100.00;99811.91;5050053;28;20068;-81
2023/01/17 06:30:11;;;;;;;65.28;60.55;;;;;;;6.93;100.00;99799.16;5054097;28;20049;-81
2023/01/17 06:32:38;;;;;;;63.55;58.55;;;;;;;6.98;100.00;99795.91;5052443;28;20057;-82
2023/01/17 06:35:07;;;;;;;64.60;59.30;;;;;;;7.13;100.00;99790.41;5046274;28;20049;-82
2023/01/17 06:37:33;;;;;;;78.30;72.60;;;;;;;6.83;100.00;99783.72;5056085;28;20041;-81
2023/01/17 06:40:00;;;;;;;80.65;74.47;;;;;;;6.81;100.00;99793.69;5054046;28;20118;-81
2023/01/17 06:42:27;;;;;;;82.00;75.00;;;;;;;6.97;100.00;99794.28;5052478;28;20040;-81
2023/01/17 06:44:53;;;;;;;86.70;77.88;;;;;;;6.78;100.00;99790.63;5047446;28;20048;-82
2023/01/17 06:47:20;;;;;;;76.03;69.45;;;;;;;6.57;100.00;99794.28;5057700;28;20654;-81
2023/01/17 06:49:47;;;;;;;76.68;70.60;;;;;;;6.79;100.00;99790.41;5063141;28;20465;-82
2023/01/17 06:52:15;;;;;;;80.72;74.13;;;;;;;6.75;100.00;99794.50;5063249;28;20049;-83
2023/01/17 06:54:41;;;;;;;84.60;77.05;;;;;;;7.15;100.00;99786.53;5050757;28;20114;-82
2023/01/17 06:57:08;;;;;;;87.25;80.05;;;;;;;7.67;100.00;99792.69;5057835;28;20049;-81
2023/01/17 06:59:35;;;;;;;94.53;86.70;;;;;;;7.87;100.00;99797.91;5054623;28;20049;-82
2023/01/17 07:02:02;;;;;;;90.78;83.80;;;;;;;8.05;100.00;99805.13;5061984;28;20083;-80
2023/01/17 07:04:28;;;;;;;93.30;85.50;;;;;;;8.03;100.00;99802.69;5058328;28;20388;-83
2023/01/17 07:06:55;;;;;;;92.03;84.43;;;;;;;7.79;100.00;99814.78;5062388;28;20061;-81
2023/01/17 07:09:23;;;;;;;82.82;75.95;;;;;;;7.77;100.00;99813.38;5056528;28;20102;-81
2023/01/17 07:11:50;;;;;;;87.32;80.22;;;;;;;7.11;100.00;99814.38;5061537;28;20118;-81
2023/01/17 07:14:17;;;;;;;91.88;85.05;;;;;;;6.91;100.00;99810.94;5053715;28;20044;-82
2023/01/17 07:16:44;;;;;;;80.63;74.53;;;;;;;6.76;100.00;99809.31;5062477;28;20053;-81
2023/01/17 07:19:12;;;;;;;92.32;83.95;;;;;;;6.62;100.00;99811.13;5046986;28;20038;-83
2023/01/17 07:21:39;;;;;;;74.47;69.10;;;;;;;6.53;100.00;99812.31;5053447;28;20053;-83
2023/01/17 07:24:06;;;;;;;77.93;71.88;;;;;;;6.45;100.00;99817.00;5053676;28;20052;-83
2023/01/17 07:26:36;;;;;;;90.35;83.80;;;;;;;6.41;100.00;99817.41;5051437;28;20477;-82
2023/01/17 07:29:03;;;;;;;89.65;83.20;;;;;;;6.35;100.00;99806.81;5052519;28;20088;-83
2023/01/17 07:31:32;;;;;;;71.30;65.55;;;;;;;6.39;100.00;99815.97;5050326;28;20079;-82
2023/01/17 07:33:59;;;;;;;68.45;62.85;;;;;;;6.35;100.00;99812.09;5055178;28;20053;-82
2023/01/17 07:36:26;;;;;;;86.03;80.05;;;;;;;6.36;100.00;99832.19;5052806;28;20049;-82
2023/01/17 07:38:53;;;;;;;100.78;93.63;;;;;;;6.53;100.00;99824.72;5047641;28;20045;-83
2023/01/17 07:41:19;;;;;;;92.55;85.93;;;;;;;6.59;100.00;99815.97;5050562;28;20045;-83
2023/01/17 07:43:48;;;;;;;84.53;78.18;;;;;;;6.56;100.00;99813.75;5057427;28;20052;-82
2023/01/17 07:46:15;;;;;;;81.95;76.20;;;;;;;6.54;100.00;99808.69;5053530;28;20045;-83
2023/01/17 07:48:42;;;;;;;76.50;70.95;;;;;;;6.46;100.00;99810.72;5048601;28;20112;-83
2023/01/17 07:51:09;;;;;;;83.47;77.57;;;;;;;6.47;100.00;99810.50;5046044;28;20041;-82
2023/01/17 07:53:36;;;;;;;88.00;81.43;;;;;;;6.49;100.00;99805.03;5054000;28;20057;-83
2023/01/17 07:56:04;;;;;;;89.82;83.13;;;;;;;6.48;100.00;99796.31;5056178;28;20048;-83
2023/01/17 07:58:31;;;;;;;100.15;92.05;;;;;;;6.43;100.00;99799.53;5054508;28;20049;-83
2023/01/17 08:01:03;;;;;;;123.82;111.93;;;;;;;6.51;100.00;99809.09;5058224;28;20041;-82
2023/01/17 08:03:31;;;;;;;117.00;105.68;;;;;;;7.61;100.00;99833.16;5051107;28;20045;-83
2023/01/17 08:05:59;;;;;;;112.53;102.80;;;;;;;7.28;100.00;99825.31;5055898;28;20045;-83
2023/01/17 08:08:26;;;;;;;106.57;97.53;;;;;;;7.27;100.00;99819.22;5051670;28;20049;-83
2023/01/17 08:10:52;;;;;;;116.10;106.57;;;;;;;6.79;100.00;99818.66;5055212;28;20563;-83
2023/01/17 08:13:19;;;;;;;120.13;110.35;;;;;;;7.24;100.00;99809.06;5050547;28;20053;-83
2023/01/17 08:15:48;;;;;;;124.72;114.90;;;;;;;6.88;100.00;99825.34;5059837;28;20053;-83
2023/01/17 08:18:16;;;;;;;105.78;97.13;;;;;;;6.63;100.00;99806.66;5063659;28;20130;-83
2023/01/17 08:20:44;;;;;;;96.18;86.75;;;;;;;7.19;100.00;99815.97;5063060;28;20480;-83
2023/01/17 08:23:11;;;;;;;80.38;72.85;;;;;;;7.44;100.00;99810.84;5062517;28;20117;-84
2023/01/17 08:25:38;;;;;;;84.30;76.57;;;;;;;8.51;100.00;99808.56;5059214;28;20754;-84
2023/01/17 08:28:05;;;;;;;80.47;73.50;;;;;;;8.38;100.00;99812.91;5052323;28;20045;-84
2023/01/17 08:30:32;;;;;;;84.32;77.03;;;;;;;8.35;100.00;99813.31;5056877;28;20048;-83
2023/01/17 08:32:58;;;;;;;78.60;71.90;;;;;;;8.03;100.00;99805.34;5062139;28;20111;-83
2023/01/17 08:35:27;;;;;;;70.43;64.05;;;;;;;7.44;100.00;99803.72;5052768;28;20045;-83
2023/01/17 08:37:56;;;;;;;72.57;65.60;;;;;;;7.77;100.00;99808.09;5062700;28;20049;-83
2023/01/17 08:40:24;;;;;;;71.47;65.47;;;;;;;7.58;100.00;99813.25;5054849;28;20114;-83
2023/01/17 08:42:55;;;;;;;70.63;64.25;;;;;;;7.69;100.00;99811.78;5061568;28;20049;-83
2023/01/17 08:45:21;;;;;;;67.47;62.05;;;;;;;8.09;100.00;99819.56;5058105;28;20053;-83
2023/01/17 08:47:48;;;;;;;66.78;61.20;;;;;;;8.43;100.00;99822.84;5062858;28;20083;-84
2023/01/17 08:50:19;;;;;;;66.75;61.17;;;;;;;9.00;100.00;99817.53;5062615;28;20572;-83
2023/01/17 08:52:48;;;;;;;74.22;67.85;;;;;;;8.76;100.00;99809.38;5051803;28;20056;-84
2023/01/17 08:55:15;;;;;;;63.83;58.60;;;;;;;7.65;100.00;99812.41;5060072;28;20112;-83
2023/01/17 08:57:42;;;;;;;82.63;75.97;;;;;;;11.22;100.00;99814.22;5061867;28;20049;-84
2023/01/17 09:00:10;;;;;;;88.05;81.22;;;;;;;11.17;100.00;99806.16;5063107;28;20049;-84
2023/01/17 09:02:37;;;;;;;60.63;55.95;;;;;;;12.87;100.00;99803.81;5060250;28;20049;-83
2023/01/17 09:05:04;;;;;;;54.70;50.70;;;;;;;13.80;100.00;99793.38;5063046;28;20060;-84
2023/01/17 09:07:31;;;;;;;55.22;51.63;;;;;;;14.65;100.00;99799.03;5059070;28;20060;-84
2023/01/17 09:09:59;;;;;;;50.22;47.00;;;;;;;15.33;100.00;99793.88;5056473;28;20569;-84
2023/01/17 09:12:26;;;;;;;51.17;47.72;;;;;;;15.49;100.00;99778.69;5061891;28;20514;-83
2023/01/17 09:14:52;;;;;;;49.25;46.20;;;;;;;15.50;100.00;99783.00;5063460;28;20106;-84
2023/01/17 09:17:19;;;;;;;49.50;46.30;;;;;;;15.38;100.00;99769.03;5062562;28;20049;-83
2023/01/17 09:19:47;;;;;;;50.20;46.95;;;;;;;15.23;100.00;99765.19;5058443;28;20049;-83
2023/01/17 09:22:14;;;;;;;49.85;46.85;;;;;;;16.09;100.00;99776.50;5064516;28;20497;-83
2023/01/17 09:24:41;;;;;;;50.88;47.63;;;;;;;15.93;100.00;99771.13;5055918;28;20138;-84
2023/01/17 09:27:09;;;;;;;48.55;45.53;;;;;;;16.54;100.00;99764.22;5058730;28;20045;-83
2023/01/17 09:29:36;;;;;;;48.33;45.33;;;;;;;16.64;100.00;99769.56;5051169;28;20056;-83
2023/01/17 09:32:03;;;;;;;49.72;46.67;;;;;;;16.65;100.00;99765.84;5055345;28;20045;-84
2023/01/17 09:34:30;;;;;;;49.50;46.50;;;;;;;16.79;100.00;99763.44;5061629;28;20507;-84
2023/01/17 09:36:56;;;;;;;49.83;46.63;;;;;;;16.71;100.00;99762.09;5056186;28;20474;-84
2023/01/17 09:39:23;;;;;;;49.55;46.53;;;;;;;16.59;100.00;99767.72;5059954;28;20049;-84
2023/01/17 09:41:59;;;;;;;49.75;46.70;;;;;;;16.78;100.00;99776.03;5060371;28;20087;-83
2023/01/17 09:44:31;;;;;;;50.55;47.55;;;;;;;17.19;100.00;99767.94;5059660;28;20126;-84
2023/01/17 09:47:04;;;;;;;49.97;46.92;;;;;;;17.13;100.00;99769.81;5060744;28;20476;-84
2023/01/17 09:49:36;;;;;;;51.85;48.65;;;;;;;16.73;100.00;99773.31;5057605;28;20045;-83
2023/01/17 09:52:04;;;;;;;50.55;47.33;;;;;;;16.87;100.00;99765.59;5050992;28;20114;-84
2023/01/17 09:54:35;;;;;;;48.63;45.65;;;;;;;16.46;100.00;99765.59;5053618;28;20114;-84
2023/01/17 09:57:13;;;;;;;50.30;47.10;;;;;;;16.22;100.00;99755.38;5062187;28;20139;-83
2023/01/17 09:59:50;;;;;;;50.40;47.10;;;;;;;17.05;100.00;99748.91;5053659;28;20075;-84
2023/01/17 10:02:46;;;;;;;49.83;46.50;;;;;;;17.79;100.00;99755.38;5058608;28;20079;-84
2023/01/17 10:05:55;;;;;;;49.03;46.10;;;;;;;18.22;100.00;99752.16;5059906;28;20049;-84
2023/01/17 10:08:40;;;;;;;49.25;46.05;;;;;;;17.90;100.00;99744.56;5018699;28;20083;-84
2023/01/17 10:11:27;;;;;;;48.75;45.65;;;;;;;18.49;100.00;99743.63;5062789;28;20180;-84
2023/01/17 10:14:06;;;;;;;49.33;46.42;;;;;;;18.24;100.00;99750.00;5054002;28;20382;-84
2023/01/17 10:16:46;;;;;;;49.72;46.72;;;;;;;18.12;100.00;99744.97;5053981;28;20067;-84
2023/01/17 10:19:31;;;;;;;49.47;46.47;;;;;;;18.41;100.00;99752.28;5060054;28;20049;-84
2023/01/17 10:22:09;;;;;;;52.88;49.58;;;;;;;18.38;100.00;99753.66;5059479;28;20048;-84
2023/01/17 10:25:06;;;;;;;51.47;48.35;;;;;;;18.32;100.00;99749.41;5061424;28;20079;-84
2023/01/17 10:27:36;;;;;;;50.20;47.15;;;;;;;17.98;100.00;99757.44;5060922;28;20053;-83
2023/01/17 10:30:15;;;;;;;50.05;47.08;;;;;;;18.65;100.00;99757.75;5062374;28;20106;-84
2023/01/17 10:32:48;;;;;;;50.72;47.67;;;;;;;18.82;100.00;99749.25;5055330;28;20053;-84
2023/01/17 10:35:21;;;;;;;50.38;47.38;;;;;;;18.95;100.00;99748.63;5054856;28;20049;-84
2023/01/17 10:37:49;;;;;;;50.40;47.50;;;;;;;17.76;100.00;99737.13;5055290;28;20045;-84
2023/01/17 10:40:23;;;;;;;50.80;47.90;;;;;;;18.57;100.00;99748.38;5054939;28;20110;-83
2023/01/17 10:42:56;;;;;;;51.05;47.95;;;;;;;18.32;100.00;99746.72;5053948;28;20131;-83
2023/01/17 10:45:27;;;;;;;52.72;49.33;;;;;;;19.48;100.00;99743.16;5051462;28;20075;-83
2023/01/17 10:48:03;;;;;;;52.30;49.10;;;;;;;20.03;100.00;99737.31;5055202;28;20612;-83
2023/01/17 11:00:49;;;;;;;50.80;47.70;;;;;;;17.74;100.00;99741.94;5050939;28;20117;-83
2023/01/17 11:03:20;;;;;;;52.83;49.63;;;;;;;18.36;100.00;99741.56;5052855;28;20484;-83
2023/01/17 11:06:14;;;;;;;52.50;49.20;;;;;;;18.00;100.00;99742.66;5051395;28;20059;-83
2023/01/17 11:08:51;;;;;;;51.53;48.30;;;;;;;17.89;100.00;99734.94;5038304;28;20072;-83
2023/01/17 11:11:19;;;;;;;53.40;50.13;;;;;;;17.86;100.00;99733.59;5054661;28;20498;-83
2023/01/17 11:13:48;;;;;;;52.70;49.40;;;;;;;18.56;100.00;99736.03;5049700;28;20053;-84
2023/01/17 11:16:21;;;;;;;54.83;51.60;;;;;;;19.53;93.37;99715.38;5054849;28;20114;-84
2023/01/17 11:19:03;;;;;;;;;;;;;;;19.61;100.00;99722.81;5055361;28;20072;-84
2023/01/17 11:21:30;;;;;;;55.10;51.78;;;;;;;19.42;98.70;99703.91;5052992;28;19929;-83
2023/01/17 11:23:57;;;;;;;53.65;50.25;;;;;;;19.69;97.88;99708.69;5053831;28;20110;-83
2023/01/17 11:26:27;;;;;;;54.85;51.45;;;;;;;19.79;87.56;99715.84;5054675;28;20052;-83
2023/01/17 11:29:14;;;;;;;64.82;61.13;;;;;;;19.61;87.70;99710.13;5054135;28;20079;-83
2023/01/17 11:31:41;;;;;;;63.70;59.95;;;;;;;20.20;85.16;99704.47;5055674;28;20049;-83
2023/01/17 11:34:15;;;;;;;68.15;64.05;;;;;;;19.95;82.63;99708.34;5058308;28;20110;-83
2023/01/17 11:36:42;;;;;;;64.55;60.83;;;;;;;19.76;87.79;99697.56;5059182;28;20476;-83
2023/01/17 11:39:24;;;;;;;58.85;55.42;;;;;;;19.32;85.09;99694.09;5057860;28;20045;-83
2023/01/17 11:41:51;;;;;;;60.97;57.10;;;;;;;18.70;94.30;99709.28;5051540;28;20065;-83
2023/01/17 11:44:23;;;;;;;62.90;59.25;;;;;;;18.44;92.92;99698.75;5049303;28;20460;-83
2023/01/17 11:47:08;;;;;;;62.00;58.10;;;;;;;19.35;92.64;99701.59;5057903;28;20049;-83
2023/01/17 11:49:36;;;;;;;60.90;57.30;;;;;;;18.91;90.18;99716.09;5057315;28;20049;-84
2023/01/17 11:52:08;;;;;;;62.25;58.78;;;;;;;18.82;93.96;99695.47;5058684;28;20053;-83
2023/01/17 11:54:39;;;;;;;60.45;56.95;;;;;;;18.96;93.35;99691.00;5057858;28;20472;-83
2023/01/17 11:57:16;;;;;;;59.78;56.38;;;;;;;18.92;94.55;99692.69;5057850;28;20099;-83
2023/01/17 11:59:44;;;;;;;63.42;59.65;;;;;;;18.70;99.54;99685.09;5049391;28;20052;-83
2023/01/17 12:02:43;;;;;;;66.55;62.70;;;;;;;18.81;96.04;99697.34;5050085;28;20536;-83
2023/01/17 12:05:34;;;;;;;53.65;50.35;;;;;;;18.64;100.00;99708.53;5045293;28;20041;-83
2023/01/17 12:08:12;;;;;;;53.55;50.35;;;;;;;18.30;100.00;99712.03;5052622;28;20052;-83
2023/01/17 12:10:52;;;;;;;52.65;49.55;;;;;;;18.70;99.33;99709.28;5051551;28;20049;-83
2023/01/17 12:16:29;;;;;;;64.53;60.88;;;;;;;18.13;100.00;99708.97;5047294;28;20454;-83
2023/01/17 12:19:11;;;;;;;62.35;58.75;;;;;;;18.45;100.00;99702.25;5053625;28;20041;-83
2023/01/17 12:21:51;;;;;;;59.85;56.35;;;;;;;18.93;96.86;99689.69;5052081;28;20515;-83
2023/01/17 12:24:49;;;;;;;63.00;59.20;;;;;;;19.21;95.70;99687.22;5046504;28;20041;-83
2023/01/17 12:27:24;;;;;;;58.28;54.97;;;;;;;18.72;97.46;99699.81;5053456;28;20099;-83
2023/01/17 12:30:05;;;;;;;60.35;56.15;;;;;;;19.08;100.00;99694.09;5056883;28;20045;-83
2023/01/17 12:32:48;;;;;;;66.97;63.28;;;;;;;18.06;100.00;99703.91;5054066;28;20497;-83
2023/01/17 12:35:20;;;;;;;52.95;49.75;;;;;;;17.27;100.00;99707.53;5053664;28;20049;-83
2023/01/17 12:37:53;;;;;;;51.95;48.55;;;;;;;17.30;100.00;99699.72;5053917;28;20563;-83
2023/01/17 12:40:27;;;;;;;53.15;49.85;;;;;;;16.88;100.00;99694.78;5056563;28;20049;-83
2023/01/17 12:42:58;;;;;;;55.45;52.05;;;;;;;16.60;100.00;99691.59;5056682;28;20102;-83
2023/01/17 12:45:32;;;;;;;53.00;49.80;;;;;;;16.66;100.00;99701.22;5051157;28;20040;-83
2023/01/17 12:48:03;;;;;;;53.35;49.75;;;;;;;16.68;100.00;99692.91;5054420;28;20045;-84
2023/01/17 12:50:37;;;;;;;53.60;50.33;;;;;;;16.81;100.00;99691.59;5044075;28;20044;-83
2023/01/17 12:53:17;;;;;;;52.45;49.22;;;;;;;16.25;100.00;99689.75;5054215;28;20291;-83
2023/01/17 12:55:51;;;;;;;51.70;48.53;;;;;;;15.98;100.00;99700.72;5052114;28;20053;-83
2023/01/17 12:58:21;;;;;;;52.58;49.25;;;;;;;15.82;100.00;99697.19;5055100;28;20556;-83
2023/01/17 13:00:54;;;;;;;51.30;48.13;;;;;;;15.60;100.00;99689.34;5056201;28;20041;-83
2023/01/17 13:03:29;;;;;;;50.22;47.13;;;;;;;15.54;100.00;99701.13;5054857;28;20045;-83
2023/01/17 13:05:57;;;;;;;52.90;49.65;;;;;;;15.23;100.00;99698.31;5053622;28;20460;-83
2023/01/17 13:08:34;;;;;;;51.45;48.35;;;;;;;15.03;100.00;99703.56;5039671;28;20049;-83